Terminal Aerodrome Forecast
Issued by NWS

Home | Current Version | Previous Version | Text Only | Print | Product List | Glossary On
Versions: 1 2 3 4 5 6 7 8 9 10 11 12 13 14 15 16 17 18 19 20 21
000
FTUS46 KOTX 280526
TAFPUW
TAF
KPUW 280526Z 2806/2906 24003KT P6SM VCSH SCT060 BKN100
     FM280800 23003KT P6SM SCT040 BKN080
     FM281000 25008KT P6SM FEW010 BKN070
     FM281800 26009G12KT P6SM BKN050 PROB30 2820/2824 -SHRA
     FM290300 19005KT P6SM SCT050 SCT200=

USA.gov is the U.S. government's official web portal to all federal, state and local government web resources and services.